Time;durP1;ratioP1;P1;durP2;ratioP2;P2;SDS_P1;SDS_P2;PMS_P1;PMS_P2;Temp;Humidity;BMP_temperature;BMP_pressure;BME280_temperature;BME280_humidity;BME280_pressure;Samples;Min_cycle;Max_cycle;Signal;HPM_P1;HPM_P2
2021/05/15 00:01:12;;;;;;;0.85;0.85;;;12.70;99.90;;;;;;5057453;28;20107;-48
2021/05/15 00:03:38;;;;;;;0.70;0.70;;;12.40;99.90;;;;;;5063230;28;20055;-52
2021/05/15 00:06:05;;;;;;;0.50;0.50;;;12.40;99.90;;;;;;5061637;28;20085;-51
2021/05/15 00:08:32;;;;;;;0.82;0.82;;;12.40;99.90;;;;;;5063753;28;20107;-50
2021/05/15 00:10:58;;;;;;;0.52;0.50;;;12.40;99.90;;;;;;5062945;28;20622;-51
2021/05/15 00:13:26;;;;;;;1.83;0.85;;;12.60;99.90;;;;;;5063035;28;20056;-48
2021/05/15 00:15:52;;;;;;;1.00;0.90;;;12.60;99.90;;;;;;5065037;28;20035;-52
2021/05/15 00:18:18;;;;;;;0.77;0.50;;;12.60;99.90;;;;;;5063459;28;20032;-51
2021/05/15 00:20:44;;;;;;;0.63;0.40;;;12.60;99.90;;;;;;5063530;28;20056;-51
2021/05/15 00:23:10;;;;;;;0.52;0.50;;;12.60;99.90;;;;;;5063687;28;20032;-50
2021/05/15 00:25:37;;;;;;;0.50;0.50;;;12.60;99.90;;;;;;5064035;28;20023;-51
2021/05/15 00:28:03;;;;;;;1.50;0.60;;;12.60;99.90;;;;;;5064329;28;20034;-50
2021/05/15 00:30:28;;;;;;;0.65;0.63;;;12.50;99.90;;;;;;5062773;28;20033;-51
2021/05/15 00:32:55;;;;;;;0.52;0.52;;;12.40;99.90;;;;;;5064232;28;20414;-48
2021/05/15 00:35:22;;;;;;;0.55;0.50;;;12.40;99.90;;;;;;5063908;28;20032;-51
2021/05/15 00:37:48;;;;;;;0.40;0.40;;;12.40;99.90;;;;;;5062917;28;20115;-50
2021/05/15 00:40:15;;;;;;;0.70;0.40;;;12.30;99.90;;;;;;5063614;28;20044;-52
2021/05/15 00:42:42;;;;;;;0.73;0.50;;;12.40;99.90;;;;;;5064080;28;20105;-52
2021/05/15 00:45:10;;;;;;;0.70;0.70;;;12.30;99.90;;;;;;5062849;28;20028;-47
2021/05/15 00:47:35;;;;;;;0.68;0.50;;;12.20;99.90;;;;;;5064156;28;20397;-51
2021/05/15 00:50:03;;;;;;;0.75;0.75;;;12.20;99.90;;;;;;5062620;28;20036;-52
2021/05/15 00:52:34;;;;;;;0.80;0.80;;;12.30;99.90;;;;;;5062746;28;20163;-50
2021/05/15 00:55:07;;;;;;;0.95;0.88;;;12.30;99.90;;;;;;5063778;28;20489;-48
2021/05/15 00:57:33;;;;;;;1.15;0.80;;;12.40;99.90;;;;;;5063809;28;20024;-46
2021/05/15 01:00:00;;;;;;;0.80;0.80;;;12.40;99.90;;;;;;5063146;28;20025;-48
2021/05/15 01:02:25;;;;;;;0.95;0.75;;;12.30;99.90;;;;;;5064461;28;20021;-52
2021/05/15 01:04:52;;;;;;;1.00;0.88;;;12.40;99.90;;;;;;5064751;28;20509;-52
2021/05/15 01:07:19;;;;;;;0.73;0.73;;;12.50;99.90;;;;;;5064466;28;20029;-51
2021/05/15 01:09:44;;;;;;;0.70;0.70;;;12.40;99.90;;;;;;5063501;28;20067;-48
2021/05/15 01:12:10;;;;;;;1.10;0.85;;;12.40;99.90;;;;;;5062258;28;20477;-49
2021/05/15 01:14:38;;;;;;;0.93;0.63;;;12.30;99.90;;;;;;5067442;28;20096;-52
2021/05/15 01:17:09;;;;;;;1.42;0.80;;;12.30;99.90;;;;;;5067084;28;20031;-49
2021/05/15 01:19:36;;;;;;;0.80;0.80;;;12.40;99.90;;;;;;5065847;28;20028;-50
2021/05/15 01:22:14;;;;;;;0.82;0.50;;;12.50;99.90;;;;;;5067934;28;20335;-51
2021/05/15 01:24:42;;;;;;;0.63;0.57;;;12.50;99.90;;;;;;5066361;28;20032;-51
2021/05/15 01:27:11;;;;;;;0.68;0.50;;;12.50;99.90;;;;;;5066914;28;20071;-52
2021/05/15 01:29:37;;;;;;;1.08;0.60;;;12.50;99.90;;;;;;5065007;28;20032;-51
2021/05/15 01:32:04;;;;;;;1.48;0.80;;;12.50;99.90;;;;;;5064402;28;20040;-50
2021/05/15 01:34:31;;;;;;;1.30;0.57;;;12.50;99.90;;;;;;5067927;28;20025;-50
2021/05/15 01:36:56;;;;;;;0.80;0.70;;;12.40;99.90;;;;;;5066353;28;20040;-51
2021/05/15 01:39:22;;;;;;;0.50;0.50;;;12.40;99.90;;;;;;5069670;28;20029;-52
2021/05/15 01:41:48;;;;;;;1.55;0.90;;;12.10;99.90;;;;;;5068914;28;20040;-51
2021/05/15 01:44:16;;;;;;;0.70;0.70;;;12.00;99.90;;;;;;5069196;28;20172;-50
2021/05/15 01:46:42;;;;;;;0.93;0.85;;;12.00;99.90;;;;;;5068112;28;20074;-51
2021/05/15 01:49:08;;;;;;;0.98;0.68;;;12.00;99.90;;;;;;5068540;28;20486;-49
2021/05/15 01:51:34;;;;;;;0.93;0.70;;;12.20;99.90;;;;;;5068820;28;20028;-49
2021/05/15 01:54:00;;;;;;;0.95;0.63;;;12.20;99.90;;;;;;5067189;28;20017;-52
2021/05/15 01:56:31;;;;;;;0.93;0.50;;;12.10;99.90;;;;;;5068201;28;20083;-52
2021/05/15 01:58:57;;;;;;;0.70;0.50;;;12.20;99.90;;;;;;5068892;28;20048;-51
2021/05/15 02:01:25;;;;;;;0.73;0.50;;;12.30;99.90;;;;;;5069693;28;20043;-51
2021/05/15 02:03:51;;;;;;;0.60;0.60;;;12.00;99.90;;;;;;5068855;28;20457;-52
2021/05/15 02:06:17;;;;;;;0.93;0.40;;;12.10;99.90;;;;;;5067792;28;20050;-51
2021/05/15 02:08:46;;;;;;;0.68;0.52;;;12.20;99.90;;;;;;5067205;28;20035;-51
2021/05/15 02:11:15;;;;;;;1.38;0.52;;;12.20;99.90;;;;;;5068048;28;20039;-52
2021/05/15 02:13:43;;;;;;;0.32;0.32;;;12.20;99.90;;;;;;5067704;28;20089;-51
2021/05/15 02:16:08;;;;;;;0.50;0.50;;;12.30;99.90;;;;;;5066941;28;20023;-49
2021/05/15 02:18:35;;;;;;;0.63;0.40;;;12.30;99.90;;;;;;5067487;28;20135;-52
2021/05/15 02:21:01;;;;;;;0.47;0.47;;;12.30;99.90;;;;;;5067855;28;20029;-48
2021/05/15 02:23:26;;;;;;;0.30;0.30;;;12.20;99.90;;;;;;5066618;28;20029;-50
2021/05/15 02:25:54;;;;;;;0.75;0.50;;;12.10;99.90;;;;;;5067734;28;20072;-52
2021/05/15 02:28:20;;;;;;;0.50;0.50;;;12.10;99.90;;;;;;5066595;28;20490;-51
2021/05/15 02:30:46;;;;;;;0.40;0.40;;;12.00;99.90;;;;;;5068017;28;20095;-51
2021/05/15 02:33:12;;;;;;;0.40;0.40;;;12.00;99.90;;;;;;5068199;28;20060;-51
2021/05/15 02:35:38;;;;;;;0.50;0.50;;;11.90;99.90;;;;;;5067018;28;20467;-50
2021/05/15 02:38:10;;;;;;;0.40;0.40;;;11.80;99.90;;;;;;5066795;28;20170;-51
2021/05/15 02:40:37;;;;;;;1.02;0.70;;;11.80;99.90;;;;;;5068039;28;20399;-52
2021/05/15 02:43:03;;;;;;;0.93;0.55;;;11.70;99.90;;;;;;5068091;28;20024;-52
2021/05/15 02:45:30;;;;;;;0.57;0.57;;;11.60;99.90;;;;;;5067522;28;20059;-49
2021/05/15 02:47:55;;;;;;;0.40;0.40;;;11.70;99.90;;;;;;5066831;28;20070;-51
2021/05/15 02:50:23;;;;;;;0.65;0.60;;;11.70;99.90;;;;;;5068224;28;20040;-49
2021/05/15 02:52:49;;;;;;;0.40;0.40;;;11.70;99.90;;;;;;5067086;28;20514;-52
2021/05/15 02:55:18;;;;;;;0.40;0.40;;;11.70;99.90;;;;;;5064791;28;20059;-52
2021/05/15 02:57:46;;;;;;;0.32;0.32;;;11.70;99.90;;;;;;5066948;28;20021;-52
2021/05/15 03:00:16;;;;;;;1.88;0.65;;;11.70;99.90;;;;;;5067324;28;20063;-51
2021/05/15 03:02:41;;;;;;;0.80;0.50;;;11.70;99.90;;;;;;5067299;28;20020;-52
2021/05/15 03:05:10;;;;;;;0.60;0.60;;;11.70;99.90;;;;;;5067306;28;20093;-51
2021/05/15 03:07:36;;;;;;;0.47;0.47;;;11.70;99.90;;;;;;5066186;28;20031;-51
2021/05/15 03:10:03;;;;;;;0.40;0.40;;;11.80;99.90;;;;;;5066464;28;20117;-51
2021/05/15 03:12:29;;;;;;;0.40;0.40;;;11.80;99.90;;;;;;5066793;28;20482;-50
2021/05/15 03:14:55;;;;;;;0.38;0.38;;;11.70;99.90;;;;;;5067591;28;20034;-52
2021/05/15 03:17:20;;;;;;;0.30;0.30;;;11.80;99.90;;;;;;5066222;28;20069;-52
2021/05/15 03:19:48;;;;;;;0.30;0.30;;;11.90;99.90;;;;;;5066835;28;20037;-49
2021/05/15 03:22:14;;;;;;;0.35;0.35;;;11.90;99.90;;;;;;5067290;28;20697;-51
2021/05/15 03:24:39;;;;;;;0.30;0.30;;;11.90;99.90;;;;;;5066945;28;20067;-51
2021/05/15 03:27:05;;;;;;;0.30;0.30;;;12.00;99.90;;;;;;5066158;28;20029;-51
2021/05/15 03:29:31;;;;;;;0.30;0.30;;;12.10;99.90;;;;;;5065798;28;20143;-52
2021/05/15 03:31:57;;;;;;;0.40;0.40;;;12.10;99.90;;;;;;5067064;28;20031;-51
2021/05/15 03:34:23;;;;;;;0.32;0.32;;;12.20;99.90;;;;;;5066964;28;20025;-48
2021/05/15 03:36:49;;;;;;;0.82;0.50;;;12.20;99.90;;;;;;5066075;28;20501;-49
2021/05/15 03:39:18;;;;;;;0.30;0.30;;;12.10;99.90;;;;;;5065647;28;20037;-48
2021/05/15 03:41:45;;;;;;;0.40;0.40;;;12.10;99.90;;;;;;5066068;28;20104;-48
2021/05/15 03:44:11;;;;;;;0.43;0.40;;;12.00;99.90;;;;;;5064651;28;20028;-48
2021/05/15 03:46:38;;;;;;;0.40;0.40;;;12.00;99.90;;;;;;5065266;28;20029;-49
2021/05/15 03:49:04;;;;;;;0.20;0.20;;;12.10;99.90;;;;;;5063484;28;20040;-51
2021/05/15 03:51:32;;;;;;;0.30;0.30;;;12.10;99.90;;;;;;5064423;28;20410;-52
2021/05/15 03:53:58;;;;;;;0.35;0.35;;;12.00;99.90;;;;;;5064015;28;20028;-51
2021/05/15 03:56:25;;;;;;;0.40;0.40;;;12.10;99.90;;;;;;5059167;28;20332;-51
2021/05/15 03:58:53;;;;;;;0.47;0.40;;;12.20;99.90;;;;;;5062537;28;20154;-50
2021/05/15 04:01:19;;;;;;;0.40;0.40;;;12.20;99.90;;;;;;5064407;28;20028;-51
2021/05/15 04:03:45;;;;;;;0.40;0.40;;;12.20;99.90;;;;;;5062941;28;20032;-48
2021/05/15 04:06:11;;;;;;;1.05;0.60;;;12.20;99.90;;;;;;5065663;28;20479;-50
2021/05/15 04:08:36;;;;;;;0.50;0.50;;;12.10;99.90;;;;;;5061678;28;20039;-48
2021/05/15 04:11:02;;;;;;;0.68;0.50;;;12.10;99.90;;;;;;5064776;28;20029;-48
2021/05/15 04:16:08;;;;;;;0.65;0.57;;;11.90;99.90;;;;;;5065357;28;20029;-48
2021/05/15 04:18:34;;;;;;;0.45;0.40;;;12.00;99.90;;;;;;5063307;28;20028;-48
2021/05/15 04:21:01;;;;;;;0.32;0.32;;;12.00;99.90;;;;;;5064961;28;20028;-49
2021/05/15 04:23:27;;;;;;;0.47;0.47;;;12.00;99.90;;;;;;5065638;28;20319;-48
2021/05/15 04:25:53;;;;;;;0.75;0.45;;;12.00;99.90;;;;;;5065043;28;20410;-49
2021/05/15 04:28:19;;;;;;;0.88;0.40;;;12.00;99.90;;;;;;5063245;28;20569;-48
2021/05/15 04:30:45;;;;;;;0.47;0.47;;;12.00;99.90;;;;;;5064640;28;20158;-49
2021/05/15 04:33:11;;;;;;;0.40;0.40;;;12.00;99.90;;;;;;5063646;28;20036;-48
2021/05/15 04:35:38;;;;;;;0.43;0.43;;;12.00;99.90;;;;;;5064596;28;20024;-47
2021/05/15 04:38:05;;;;;;;0.50;0.50;;;11.90;99.90;;;;;;5063623;28;20110;-49
2021/05/15 04:40:33;;;;;;;0.98;0.70;;;11.90;99.90;;;;;;5064912;28;20392;-48
2021/05/15 04:42:59;;;;;;;0.95;0.70;;;11.90;99.90;;;;;;5064515;28;20052;-49
2021/05/15 04:45:28;;;;;;;0.50;0.50;;;11.80;99.90;;;;;;5065335;28;20063;-48
2021/05/15 04:47:53;;;;;;;0.50;0.50;;;11.80;99.90;;;;;;5064961;28;20445;-49
2021/05/15 04:50:20;;;;;;;0.95;0.63;;;11.80;99.90;;;;;;5068266;28;20518;-49
2021/05/15 04:52:47;;;;;;;0.80;0.73;;;11.80;99.90;;;;;;5065516;28;20568;-47
2021/05/15 04:55:13;;;;;;;1.42;0.70;;;11.80;99.90;;;;;;5067547;28;20110;-48
2021/05/15 04:57:38;;;;;;;1.00;0.75;;;11.70;99.90;;;;;;5066820;28;20494;-48
2021/05/15 05:00:05;;;;;;;0.77;0.77;;;11.80;99.90;;;;;;5067118;28;20063;-48
2021/05/15 05:02:30;;;;;;;0.60;0.60;;;11.70;99.90;;;;;;5066689;28;20040;-47
2021/05/15 05:04:56;;;;;;;0.60;0.60;;;11.70;99.90;;;;;;5068774;28;20570;-51
2021/05/15 05:07:22;;;;;;;1.05;0.80;;;11.80;99.90;;;;;;5067210;28;20123;-51
2021/05/15 05:09:48;;;;;;;0.95;0.77;;;11.80;99.90;;;;;;5067267;28;20064;-52
2021/05/15 05:12:14;;;;;;;0.73;0.73;;;11.70;99.90;;;;;;5066534;28;20031;-51
2021/05/15 05:14:40;;;;;;;0.82;0.63;;;11.80;99.90;;;;;;5068759;28;20025;-51
2021/05/15 05:17:07;;;;;;;0.70;0.68;;;11.80;99.90;;;;;;5067908;28;20019;-50
2021/05/15 05:19:33;;;;;;;1.15;0.70;;;11.80;99.90;;;;;;5067802;28;20448;-51
2021/05/15 05:22:02;;;;;;;0.50;0.50;;;11.80;99.90;;;;;;5067026;28;20027;-51
2021/05/15 05:24:32;;;;;;;0.65;0.50;;;11.80;99.90;;;;;;5068119;28;20085;-49
2021/05/15 05:26:59;;;;;;;0.70;0.70;;;11.90;99.90;;;;;;5067293;28;20455;-51
2021/05/15 05:29:26;;;;;;;1.40;1.30;;;11.80;99.90;;;;;;5067238;28;20465;-49
2021/05/15 05:31:52;;;;;;;1.25;1.10;;;11.80;99.90;;;;;;5065815;28;20036;-51
2021/05/15 05:34:19;;;;;;;1.10;1.00;;;11.90;99.90;;;;;;5067574;28;20031;-47
2021/05/15 05:36:45;;;;;;;0.70;0.70;;;11.90;99.90;;;;;;5067805;28;20484;-48
2021/05/15 05:39:18;;;;;;;0.73;0.73;;;11.80;99.90;;;;;;5068103;28;20039;-48
2021/05/15 05:41:48;;;;;;;1.02;0.80;;;11.60;99.90;;;;;;5067854;28;20074;-49
2021/05/15 05:44:15;;;;;;;0.70;0.70;;;11.70;99.90;;;;;;5066528;28;20494;-48
2021/05/15 05:46:41;;;;;;;0.68;0.60;;;11.60;99.90;;;;;;5067461;28;20028;-48
2021/05/15 05:49:07;;;;;;;0.82;0.45;;;11.60;99.90;;;;;;5068448;28;20043;-48
2021/05/15 05:51:33;;;;;;;2.00;0.60;;;11.70;99.90;;;;;;5066953;28;20491;-50
2021/05/15 05:54:00;;;;;;;0.98;0.65;;;11.60;99.90;;;;;;5063323;28;20036;-50
2021/05/15 05:56:26;;;;;;;1.45;1.00;;;11.50;99.90;;;;;;5065053;28;20115;-48
2021/05/15 05:58:52;;;;;;;1.27;0.80;;;11.30;99.90;;;;;;5058489;28;20029;-49
2021/05/15 06:01:19;;;;;;;0.95;0.75;;;11.50;99.90;;;;;;5064126;28;20035;-52
2021/05/15 06:03:45;;;;;;;0.60;0.60;;;11.50;99.90;;;;;;5062094;28;20145;-50
2021/05/15 06:06:12;;;;;;;0.50;0.50;;;11.60;99.90;;;;;;5059745;28;20060;-50
2021/05/15 06:08:39;;;;;;;1.27;0.60;;;11.50;99.90;;;;;;5065822;28;20032;-50
2021/05/15 06:11:06;;;;;;;0.45;0.45;;;11.50;99.90;;;;;;5059379;28;20033;-48
2021/05/15 06:13:31;;;;;;;0.57;0.57;;;11.60;99.90;;;;;;5054991;28;20459;-50
2021/05/15 06:15:57;;;;;;;0.40;0.40;;;11.50;99.90;;;;;;5060250;28;20052;-51
2021/05/15 06:18:24;;;;;;;0.60;0.50;;;11.60;99.90;;;;;;5050352;28;20090;-48
2021/05/15 06:20:51;;;;;;;0.77;0.50;;;11.50;99.90;;;;;;5056854;28;20029;-48
2021/05/15 06:23:17;;;;;;;0.65;0.43;;;11.60;99.90;;;;;;5068038;28;20131;-51
2021/05/15 06:25:43;;;;;;;1.23;0.90;;;11.50;99.90;;;;;;5068590;28;20036;-52
2021/05/15 06:28:09;;;;;;;1.67;0.80;;;11.50;99.90;;;;;;5067291;28;20029;-51
2021/05/15 06:30:34;;;;;;;0.73;0.70;;;11.50;99.90;;;;;;5067599;28;20032;-49
2021/05/15 06:33:00;;;;;;;0.70;0.50;;;11.50;99.90;;;;;;5067953;28;20031;-49
2021/05/15 06:35:27;;;;;;;0.75;0.75;;;11.50;99.90;;;;;;5067262;28;20028;-47
2021/05/15 06:37:53;;;;;;;1.38;0.80;;;11.40;99.90;;;;;;5066202;28;20090;-51
2021/05/15 06:40:19;;;;;;;0.57;0.57;;;11.50;99.90;;;;;;5065884;28;20067;-49
2021/05/15 06:42:44;;;;;;;0.52;0.52;;;11.60;99.90;;;;;;5067841;28;20518;-51
2021/05/15 06:45:11;;;;;;;0.85;0.70;;;11.50;99.90;;;;;;5066623;28;20482;-51
2021/05/15 06:47:37;;;;;;;0.70;0.70;;;11.50;99.90;;;;;;5057039;28;20426;-51
2021/05/15 06:50:05;;;;;;;1.75;0.93;;;11.50;99.90;;;;;;5060943;28;20325;-51
2021/05/15 06:52:31;;;;;;;3.92;1.52;;;11.50;99.90;;;;;;5066264;28;20050;-52
2021/05/15 06:54:57;;;;;;;1.25;1.15;;;11.40;99.90;;;;;;5068180;28;20143;-50
2021/05/15 06:57:23;;;;;;;0.93;0.80;;;11.50;99.90;;;;;;5063170;28;20020;-51
2021/05/15 06:59:49;;;;;;;1.05;0.80;;;11.60;99.90;;;;;;5067206;28;20035;-50
2021/05/15 07:02:15;;;;;;;0.90;0.50;;;11.50;99.90;;;;;;5063084;28;20024;-51
2021/05/15 07:04:40;;;;;;;0.55;0.52;;;11.50;99.90;;;;;;5060757;28;20032;-49
2021/05/15 07:07:06;;;;;;;0.80;0.60;;;11.50;99.90;;;;;;5058854;28;20025;-48
2021/05/15 07:09:32;;;;;;;0.40;0.40;;;11.50;99.90;;;;;;5060375;28;20032;-50
2021/05/15 07:11:57;;;;;;;0.70;0.50;;;11.60;99.90;;;;;;5059193;28;20700;-49
2021/05/15 07:14:23;;;;;;;0.40;0.40;;;11.60;99.90;;;;;;5062637;28;20043;-49
2021/05/15 07:16:49;;;;;;;0.63;0.50;;;11.70;99.90;;;;;;5066782;28;20502;-48
2021/05/15 07:19:15;;;;;;;0.50;0.50;;;11.90;99.90;;;;;;5067865;28;20028;-50
2021/05/15 07:21:42;;;;;;;1.27;0.60;;;11.70;99.90;;;;;;5068133;28;20070;-48
2021/05/15 07:24:09;;;;;;;1.08;0.57;;;11.70;99.90;;;;;;5067276;28;20106;-50
2021/05/15 07:26:34;;;;;;;0.70;0.57;;;11.70;99.90;;;;;;5067298;28;20675;-50
2021/05/15 07:29:00;;;;;;;0.50;0.50;;;11.70;99.90;;;;;;5063731;28;20083;-50
2021/05/15 07:31:26;;;;;;;0.90;0.60;;;11.90;99.90;;;;;;5061382;28;20025;-50
2021/05/15 07:33:52;;;;;;;0.60;0.60;;;11.80;99.90;;;;;;5061787;28;20075;-49
2021/05/15 07:36:18;;;;;;;1.00;0.80;;;11.80;99.90;;;;;;5061634;28;20036;-47
2021/05/15 07:38:44;;;;;;;1.75;0.90;;;11.70;99.90;;;;;;5067313;28;20553;-50
2021/05/15 07:41:10;;;;;;;1.88;1.00;;;11.60;99.90;;;;;;5066808;28;20017;-51
2021/05/15 07:43:37;;;;;;;1.13;0.75;;;11.70;99.90;;;;;;5066631;28;20081;-51
2021/05/15 07:46:02;;;;;;;1.52;0.90;;;11.70;99.90;;;;;;5066224;28;20031;-48
2021/05/15 07:48:37;;;;;;;2.25;1.00;;;11.70;99.90;;;;;;5066676;28;20036;-47
2021/05/15 07:51:03;;;;;;;0.82;0.75;;;11.70;99.90;;;;;;5065704;28;20035;-48
2021/05/15 07:53:29;;;;;;;2.67;1.00;;;11.60;99.90;;;;;;5066466;28;20034;-50
2021/05/15 07:55:55;;;;;;;1.85;1.05;;;11.60;99.90;;;;;;5066299;28;20028;-48
2021/05/15 07:58:21;;;;;;;3.60;1.20;;;11.60;99.90;;;;;;5065230;28;20483;-51
2021/05/15 08:00:48;;;;;;;2.40;1.30;;;11.60;99.90;;;;;;5066152;28;20402;-49
2021/05/15 08:03:13;;;;;;;4.28;1.63;;;11.50;99.90;;;;;;5066663;28;20059;-50
2021/05/15 08:05:40;;;;;;;3.13;1.42;;;11.50;99.90;;;;;;5066451;28;20028;-49
2021/05/15 08:08:06;;;;;;;1.42;0.90;;;11.60;99.90;;;;;;5065263;28;20406;-50
2021/05/15 08:10:33;;;;;;;2.63;1.40;;;11.60;99.90;;;;;;5065757;28;20055;-51
2021/05/15 08:13:00;;;;;;;1.38;1.25;;;11.60;99.90;;;;;;5065077;28;20050;-51
2021/05/15 08:15:27;;;;;;;2.47;1.42;;;11.50;99.90;;;;;;5065060;28;20588;-46
2021/05/15 08:17:53;;;;;;;2.13;1.40;;;11.40;99.90;;;;;;5066282;28;20048;-51
2021/05/15 08:20:20;;;;;;;3.15;1.55;;;11.50;99.90;;;;;;5065808;28;20493;-49
2021/05/15 08:22:47;;;;;;;1.80;1.60;;;11.50;99.90;;;;;;5055917;28;20029;-50
2021/05/15 08:25:14;;;;;;;1.98;1.40;;;11.50;99.90;;;;;;5046210;28;21288;-50
2021/05/15 08:27:41;;;;;;;2.80;1.42;;;11.60;99.90;;;;;;5046007;28;20044;-50
2021/05/15 08:30:18;;;;;;;4.00;1.33;;;11.50;99.90;;;;;;5045627;28;20024;-50
2021/05/15 08:32:45;;;;;;;1.65;1.52;;;11.50;99.90;;;;;;5046545;28;20041;-51
2021/05/15 08:35:11;;;;;;;2.83;1.40;;;11.40;99.90;;;;;;5046292;28;20053;-49
2021/05/15 08:37:37;;;;;;;3.90;1.50;;;11.40;99.90;;;;;;5045790;28;20029;-48
2021/05/15 08:40:05;;;;;;;2.60;1.13;;;11.40;99.90;;;;;;5050027;28;20548;-50
2021/05/15 08:42:35;;;;;;;1.95;1.30;;;11.40;99.90;;;;;;5066066;28;20078;-50
2021/05/15 08:45:05;;;;;;;2.63;1.10;;;11.30;99.90;;;;;;5065963;28;20027;-51
2021/05/15 08:47:31;;;;;;;1.70;1.05;;;11.30;99.90;;;;;;5065600;28;20025;-50
2021/05/15 08:50:01;;;;;;;3.40;1.30;;;11.40;99.90;;;;;;5064055;28;20095;-52
2021/05/15 08:52:27;;;;;;;1.30;1.10;;;11.40;99.90;;;;;;5073985;28;20036;-53
2021/05/15 08:54:53;;;;;;;1.77;1.00;;;11.40;99.90;;;;;;5065513;28;20039;-53
2021/05/15 08:57:20;;;;;;;1.92;1.27;;;11.40;99.90;;;;;;5064101;28;20024;-48
2021/05/15 08:59:50;;;;;;;2.55;1.30;;;11.40;99.90;;;;;;5065411;28;20025;-50
2021/05/15 09:02:18;;;;;;;3.45;1.95;;;11.30;99.90;;;;;;5065142;28;20017;-49
2021/05/15 09:04:44;;;;;;;2.13;1.33;;;11.30;99.90;;;;;;5066041;28;20035;-51
2021/05/15 09:07:11;;;;;;;2.22;1.60;;;11.20;99.90;;;;;;5064622;28;20024;-47
2021/05/15 09:09:37;;;;;;;2.63;1.40;;;11.20;99.90;;;;;;5065803;28;20036;-49
2021/05/15 09:12:04;;;;;;;1.60;1.10;;;11.20;99.90;;;;;;5065354;28;20190;-49
2021/05/15 09:14:30;;;;;;;2.42;1.30;;;11.20;99.90;;;;;;5063728;28;20033;-50
2021/05/15 09:16:56;;;;;;;2.83;1.23;;;11.20;99.90;;;;;;5065233;28;20063;-50
2021/05/15 09:19:25;;;;;;;1.90;1.30;;;11.20;99.90;;;;;;5065258;28;20426;-48
2021/05/15 09:22:00;;;;;;;1.77;1.40;;;11.20;99.90;;;;;;5065484;28;20024;-50
2021/05/15 09:24:30;;;;;;;1.77;1.08;;;11.00;99.90;;;;;;5045456;28;20032;-48
2021/05/15 09:26:56;;;;;;;3.42;1.17;;;10.80;99.90;;;;;;5044515;28;20028;-48
2021/05/15 09:29:22;;;;;;;2.28;1.13;;;10.90;99.90;;;;;;5044797;28;20032;-51
2021/05/15 09:31:48;;;;;;;4.18;1.40;;;10.90;99.90;;;;;;5045337;28;20036;-50
2021/05/15 09:34:14;;;;;;;4.35;1.20;;;10.80;99.90;;;;;;5046855;28;20028;-47
2021/05/15 09:36:43;;;;;;;1.90;1.35;;;10.90;99.90;;;;;;5049857;28;20021;-48
2021/05/15 09:39:08;;;;;;;2.95;1.75;;;10.90;99.90;;;;;;5048627;28;20957;-48
2021/05/15 09:41:50;;;;;;;2.88;2.03;;;10.90;99.90;;;;;;5065824;28;20612;-49
2021/05/15 09:44:18;;;;;;;2.38;1.60;;;10.90;99.90;;;;;;5068656;28;20067;-49
2021/05/15 09:46:46;;;;;;;2.92;1.67;;;10.90;99.90;;;;;;5069556;28;20047;-47
2021/05/15 09:49:14;;;;;;;2.08;1.58;;;11.00;99.90;;;;;;5069000;28;20032;-51
2021/05/15 09:51:51;;;;;;;5.60;1.70;;;11.00;99.90;;;;;;5069270;28;20029;-52
2021/05/15 09:54:22;;;;;;;2.83;1.33;;;11.10;99.90;;;;;;5068445;28;20490;-48
2021/05/15 09:57:01;;;;;;;1.77;1.52;;;11.10;99.90;;;;;;5067991;28;20400;-48
2021/05/15 09:59:38;;;;;;;3.05;1.40;;;11.10;99.90;;;;;;5068212;28;20070;-47
2021/05/15 10:02:11;;;;;;;3.95;1.48;;;11.10;99.90;;;;;;5067892;28;20055;-51
2021/05/15 10:04:40;;;;;;;2.42;1.05;;;11.10;99.90;;;;;;5068159;28;20036;-49
2021/05/15 10:07:14;;;;;;;1.90;1.10;;;11.10;99.90;;;;;;5066797;28;20499;-50
2021/05/15 10:09:39;;;;;;;;;;;11.10;99.90;;;;;;5069037;28;20115;-49
2021/05/15 10:12:06;;;;;;;2.20;1.75;;;11.20;99.90;;;;;;5067974;28;20476;-49
2021/05/15 10:14:33;;;;;;;2.05;1.42;;;11.20;99.90;;;;;;5067124;28;20111;-50
2021/05/15 10:16:59;;;;;;;1.70;1.05;;;11.30;99.90;;;;;;5066142;28;20032;-49
2021/05/15 10:19:28;;;;;;;2.75;1.17;;;11.30;99.90;;;;;;5067895;28;20550;-52
2021/05/15 10:21:53;;;;;;;1.48;1.20;;;11.30;99.90;;;;;;5067426;28;20082;-49
2021/05/15 10:24:30;;;;;;;4.20;1.50;;;11.30;99.90;;;;;;5067887;28;20036;-49
2021/05/15 10:27:00;;;;;;;3.08;1.70;;;11.30;99.90;;;;;;5065405;28;20467;-49
2021/05/15 10:29:43;;;;;;;3.83;1.33;;;11.20;99.90;;;;;;5072032;28;20051;-52
2021/05/15 10:32:23;;;;;;;3.67;1.58;;;11.20;99.90;;;;;;5087697;28;20028;-49
2021/05/15 10:35:00;;;;;;;3.92;1.35;;;11.30;99.90;;;;;;5088023;28;20024;-50
2021/05/15 10:37:30;;;;;;;1.92;1.08;;;11.30;99.90;;;;;;5074509;28;20027;-48
2021/05/15 10:39:56;;;;;;;1.55;1.00;;;11.30;99.90;;;;;;5061153;28;20382;-49
2021/05/15 10:42:32;;;;;;;1.08;0.98;;;11.30;99.90;;;;;;5061689;28;20058;-48
2021/05/15 10:45:00;;;;;;;3.60;1.70;;;11.30;99.90;;;;;;5062808;28;20025;-48
2021/05/15 10:47:25;;;;;;;2.20;1.10;;;11.30;99.90;;;;;;5061559;28;20021;-52
2021/05/15 10:49:52;;;;;;;1.35;1.05;;;11.30;99.90;;;;;;5068466;28;20078;-52
2021/05/15 10:52:22;;;;;;;3.65;1.40;;;11.30;99.90;;;;;;5063957;28;20360;-49
2021/05/15 10:55:10;;;;;;;2.17;1.20;;;11.20;99.90;;;;;;5063033;28;20021;-49
2021/05/15 10:57:36;;;;;;;8.00;1.38;;;11.30;99.90;;;;;;5056826;28;20041;-49
2021/05/15 11:00:08;;;;;;;3.60;1.60;;;11.20;99.90;;;;;;5063179;28;20056;-52
2021/05/15 11:02:38;;;;;;;2.53;1.00;;;11.20;99.90;;;;;;5055899;28;20024;-51
2021/05/15 11:05:17;;;;;;;3.85;1.67;;;11.20;99.90;;;;;;5062998;28;20693;-50
2021/05/15 11:07:43;;;;;;;3.00;1.00;;;11.20;99.90;;;;;;5057202;28;20025;-53
2021/05/15 11:10:12;;;;;;;2.08;0.93;;;11.10;99.90;;;;;;5065273;28;20041;-50
2021/05/15 11:12:52;;;;;;;1.70;1.20;;;11.20;99.90;;;;;;5064013;28;20060;-49
2021/05/15 11:15:21;;;;;;;2.05;1.10;;;11.20;99.90;;;;;;5065523;28;20024;-52
2021/05/15 11:18:04;;;;;;;1.30;1.02;;;11.20;99.90;;;;;;5066906;28;20025;-51
2021/05/15 11:20:47;;;;;;;1.67;1.02;;;11.30;99.90;;;;;;5064478;28;20107;-52
2021/05/15 11:23:16;;;;;;;1.50;1.20;;;11.20;99.90;;;;;;5067194;28;20151;-51
2021/05/15 11:25:57;;;;;;;2.40;1.17;;;11.20;99.90;;;;;;5063014;28;20529;-53
2021/05/15 11:28:25;;;;;;;1.92;1.15;;;11.20;99.90;;;;;;5047736;28;20838;-52
2021/05/15 11:30:50;;;;;;;3.20;1.33;;;11.20;99.90;;;;;;5064661;28;20032;-51
2021/05/15 11:33:21;;;;;;;3.00;1.02;;;11.20;99.90;;;;;;5065436;28;20077;-50
2021/05/15 11:35:49;;;;;;;2.90;1.30;;;11.20;99.90;;;;;;5066805;28;20025;-48
2021/05/15 11:38:14;;;;;;;2.40;1.20;;;11.10;99.90;;;;;;5065913;28;20119;-50
2021/05/15 11:40:50;;;;;;;1.50;1.40;;;11.10;99.90;;;;;;5063689;28;20158;-53
2021/05/15 11:43:29;;;;;;;1.55;1.30;;;11.20;99.90;;;;;;5051059;28;20032;-50
2021/05/15 11:45:55;;;;;;;2.17;1.38;;;11.20;99.90;;;;;;5053742;28;20043;-49
2021/05/15 11:48:26;;;;;;;1.35;1.10;;;11.30;99.90;;;;;;5065618;28;20112;-51
2021/05/15 11:51:31;;;;;;;5.35;1.50;;;11.30;99.90;;;;;;5063127;28;20028;-48
2021/05/15 11:53:58;;;;;;;3.60;1.50;;;11.30;99.90;;;;;;5061475;28;20376;-48
2021/05/15 11:56:27;;;;;;;3.25;1.30;;;11.30;99.90;;;;;;5063132;28;20059;-48
2021/05/15 11:58:58;;;;;;;2.20;1.38;;;11.30;99.90;;;;;;5064363;28;20050;-48
2021/05/15 12:01:27;;;;;;;3.90;1.17;;;11.30;99.90;;;;;;5062813;28;20032;-49
2021/05/15 12:04:05;;;;;;;3.83;1.23;;;11.30;99.90;;;;;;5065505;28;20024;-47
2021/05/15 12:06:31;;;;;;;3.55;1.30;;;11.30;99.90;;;;;;5064162;28;20054;-47
2021/05/15 12:08:57;;;;;;;3.08;1.80;;;11.30;99.90;;;;;;5065618;28;20036;-49
2021/05/15 12:11:25;;;;;;;2.75;1.42;;;11.30;99.90;;;;;;5062895;28;20028;-48
2021/05/15 12:13:53;;;;;;;3.03;1.30;;;11.40;99.90;;;;;;5065108;28;20067;-47
2021/05/15 12:16:22;;;;;;;3.58;1.08;;;11.40;99.90;;;;;;5065023;28;20028;-49
2021/05/15 12:18:49;;;;;;;4.47;1.10;;;11.50;99.90;;;;;;5065114;28;20020;-48
2021/05/15 12:21:15;;;;;;;3.58;1.73;;;11.50;99.90;;;;;;5064992;28;20078;-48
2021/05/15 12:23:42;;;;;;;3.22;1.35;;;11.40;99.90;;;;;;5065014;28;20111;-47
2021/05/15 12:26:10;;;;;;;2.88;1.27;;;11.50;99.90;;;;;;5065048;28;20455;-51
2021/05/15 12:28:49;;;;;;;1.95;1.30;;;11.50;99.90;;;;;;5064443;28;20560;-47
2021/05/15 12:31:26;;;;;;;4.75;1.50;;;11.50;99.90;;;;;;5048771;28;20021;-47
2021/05/15 12:33:57;;;;;;;3.80;1.50;;;11.40;99.90;;;;;;5044764;28;20417;-48
2021/05/15 12:36:24;;;;;;;2.00;1.40;;;11.40;99.90;;;;;;5045052;28;20424;-48
2021/05/15 12:38:52;;;;;;;4.38;1.40;;;11.40;99.90;;;;;;5045035;28;20039;-50
2021/05/15 12:41:21;;;;;;;2.20;1.40;;;11.30;99.90;;;;;;5044974;28;20108;-47
2021/05/15 12:43:59;;;;;;;2.78;1.30;;;11.30;99.90;;;;;;5045230;28;20033;-48
2021/05/15 12:46:25;;;;;;;2.40;1.00;;;11.20;99.90;;;;;;5052828;28;20032;-48
2021/05/15 12:48:56;;;;;;;1.63;1.15;;;11.30;99.90;;;;;;5063046;28;20369;-48
2021/05/15 12:51:35;;;;;;;2.40;0.98;;;11.30;99.90;;;;;;5064219;28;20523;-48
2021/05/15 12:54:21;;;;;;;2.10;1.30;;;11.30;99.90;;;;;;5061590;28;20024;-47